createdAt,value
2022-10-07T00:01:47.413Z,4.15
2022-10-07T00:03:40.203Z,4.15
2022-10-07T00:05:30.875Z,4.18
2022-10-07T00:07:21.469Z,4.80
2022-10-07T00:09:11.981Z,4.47
2022-10-07T00:11:07.259Z,4.30
2022-10-07T00:12:59.532Z,3.55
2022-10-07T00:14:50.144Z,3.97
2022-10-07T00:16:41.524Z,3.83
2022-10-07T00:18:32.104Z,3.60
2022-10-07T00:20:23.773Z,4.28
2022-10-07T00:22:14.467Z,3.63
2022-10-07T00:24:05.902Z,3.58
2022-10-07T00:26:00.405Z,4.28
2022-10-07T00:27:51.029Z,3.88
2022-10-07T00:29:41.401Z,4.25
2022-10-07T00:31:34.321Z,4.13
2022-10-07T00:33:24.831Z,4.57
2022-10-07T00:35:15.597Z,4.45
2022-10-07T00:37:07.697Z,4.22
2022-10-07T00:38:59.862Z,3.42
2022-10-07T00:40:50.529Z,4.88
2022-10-07T00:42:41.426Z,4.68
2022-10-07T00:44:47.385Z,3.80
2022-10-07T00:46:39.474Z,4.30
2022-10-07T00:48:32.052Z,4.68
2022-10-07T00:50:26.116Z,3.95
2022-10-07T00:52:19.031Z,3.45
2022-10-07T00:54:12.861Z,4.60
2022-10-07T00:56:06.328Z,4.00
2022-10-07T00:57:59.564Z,4.25
2022-10-07T00:59:50.265Z,4.57
2022-10-07T01:01:40.944Z,4.13
2022-10-07T01:03:31.816Z,3.97
2022-10-07T01:05:22.502Z,3.90
2022-10-07T01:07:13.113Z,3.88
2022-10-07T01:09:05.437Z,4.03
2022-10-07T01:12:56.700Z,4.68
2022-10-07T01:14:52.257Z,3.95
2022-10-07T01:16:48.748Z,4.30
2022-10-07T01:18:45.935Z,4.90
2022-10-07T01:20:41.206Z,4.50
2022-10-07T01:22:39.364Z,4.13
2022-10-07T01:24:39.627Z,5.05
2022-10-07T01:26:41.749Z,4.70
2022-10-07T01:28:35.084Z,4.38
2022-10-07T01:30:26.059Z,3.55
2022-10-07T01:32:20.875Z,4.32
2022-10-07T01:34:13.734Z,4.18
2022-10-07T01:36:07.555Z,4.07
2022-10-07T01:38:01.509Z,4.28
2022-10-07T01:39:56.091Z,3.80
2022-10-07T01:41:48.444Z,4.60
2022-10-07T01:45:30.759Z,4.18
2022-10-07T01:47:21.478Z,4.45
2022-10-07T01:49:11.854Z,5.18
2022-10-07T01:51:02.371Z,4.78
2022-10-07T01:53:04.155Z,3.92
2022-10-07T01:55:13.166Z,4.93
2022-10-07T01:57:13.458Z,4.10
2022-10-07T01:59:28.585Z,6.00
2022-10-07T02:01:22.947Z,4.28
2022-10-07T02:03:27.339Z,4.45
2022-10-07T02:05:23.888Z,4.00
2022-10-07T02:07:27.690Z,4.43
2022-10-07T02:09:25.784Z,4.30
2022-10-07T02:11:19.805Z,5.82
2022-10-07T02:13:15.654Z,4.82
2022-10-07T02:15:09.787Z,4.80
2022-10-07T02:17:03.775Z,5.32
2022-10-07T02:18:54.417Z,4.70
2022-10-07T02:20:47.706Z,3.88
2022-10-07T02:22:40.163Z,5.03
2022-10-07T02:24:34.050Z,4.32
2022-10-07T02:26:26.136Z,4.95
2022-10-07T02:28:21.292Z,4.75
2022-10-07T02:30:13.844Z,5.75
2022-10-07T02:32:06.725Z,4.22
2022-10-07T02:33:57.889Z,4.82
2022-10-07T02:35:51.496Z,4.65
2022-10-07T02:37:43.039Z,4.22
2022-10-07T02:39:34.429Z,5.88
2022-10-07T02:41:32.547Z,4.63
2022-10-07T02:43:29.738Z,4.93
2022-10-07T02:45:26.610Z,4.70
2022-10-07T02:47:21.882Z,6.03
2022-10-07T02:49:15.053Z,5.20
2022-10-07T02:51:08.402Z,5.43
2022-10-07T02:53:01.249Z,5.32
2022-10-07T02:54:53.829Z,5.07
2022-10-07T02:56:44.776Z,4.82
2022-10-07T02:58:37.536Z,5.90
2022-10-07T03:00:29.286Z,4.80
2022-10-07T03:02:24.716Z,5.63
2022-10-07T03:04:15.170Z,4.97
2022-10-07T03:06:06.026Z,4.75
2022-10-07T03:07:59.590Z,4.75
2022-10-07T03:09:50.083Z,6.70
2022-10-07T03:11:40.884Z,5.30
2022-10-07T03:13:31.685Z,5.35
2022-10-07T03:15:24.227Z,4.43
2022-10-07T03:17:15.009Z,4.90
2022-10-07T03:19:05.629Z,5.32
2022-10-07T03:20:56.933Z,6.05
2022-10-07T03:22:47.492Z,6.00
2022-10-07T03:24:38.422Z,5.13
2022-10-07T03:26:29.089Z,4.80
2022-10-07T03:28:19.586Z,5.40
2022-10-07T03:30:11.540Z,5.15
2022-10-07T03:32:03.418Z,5.15
2022-10-07T03:33:54.251Z,5.75
2022-10-07T03:35:45.059Z,5.80
2022-10-07T03:37:35.410Z,5.32
2022-10-07T03:39:25.902Z,5.75
2022-10-07T03:41:17.035Z,5.10
2022-10-07T03:43:07.572Z,5.05
2022-10-07T03:44:58.406Z,5.55
2022-10-07T03:46:49.786Z,5.63
2022-10-07T03:48:42.073Z,5.27
2022-10-07T03:50:34.577Z,5.57
2022-10-07T03:54:15.671Z,5.63
2022-10-07T03:56:06.384Z,5.47
2022-10-07T03:57:59.751Z,5.63
2022-10-07T03:59:50.476Z,5.85
2022-10-07T04:01:41.264Z,5.35
2022-10-07T04:03:32.149Z,5.85
2022-10-07T04:05:24.061Z,5.00
2022-10-07T04:07:14.855Z,5.40
2022-10-07T04:09:05.555Z,6.05
2022-10-07T04:10:56.640Z,5.70
2022-10-07T04:12:47.563Z,5.05
2022-10-07T04:14:38.268Z,5.63
2022-10-07T04:16:29.133Z,5.38
2022-10-07T04:18:20.131Z,5.20
2022-10-07T04:20:11.500Z,5.00
2022-10-07T04:22:08.486Z,5.72
2022-10-07T04:23:59.523Z,5.32
2022-10-07T04:25:49.865Z,4.90
2022-10-07T04:27:51.554Z,5.95
2022-10-07T04:29:42.763Z,4.85
2022-10-07T04:31:33.272Z,4.82
2022-10-07T04:33:24.437Z,5.32
2022-10-07T04:35:15.447Z,4.50
2022-10-07T04:37:07.335Z,4.95
2022-10-07T04:38:57.687Z,5.60
2022-10-07T04:40:49.320Z,5.43
2022-10-07T04:42:39.908Z,5.20
2022-10-07T04:44:30.391Z,6.15
2022-10-07T04:46:20.921Z,5.30
2022-10-07T04:48:11.397Z,4.75
2022-10-07T04:50:02.234Z,5.65
2022-10-07T04:51:52.823Z,4.60
2022-10-07T04:53:44.984Z,5.45
2022-10-07T04:55:36.231Z,5.50
2022-10-07T04:57:26.855Z,5.85
2022-10-07T04:59:17.037Z,4.95
2022-10-07T05:01:09.657Z,5.63
2022-10-07T05:04:50.735Z,5.18
2022-10-07T05:06:40.883Z,4.82
2022-10-07T05:08:31.590Z,4.82
2022-10-07T05:10:23.569Z,4.75
2022-10-07T05:12:14.916Z,5.78
2022-10-07T05:14:05.344Z,5.43
2022-10-07T05:15:57.960Z,5.28
2022-10-07T05:17:48.706Z,4.93
2022-10-07T05:19:39.454Z,5.72
2022-10-07T05:21:30.076Z,4.78
2022-10-07T05:23:25.775Z,4.63
2022-10-07T05:25:19.063Z,4.57
2022-10-07T05:27:10.717Z,5.25
2022-10-07T05:29:01.381Z,5.45
2022-10-07T05:31:01.602Z,4.78
2022-10-07T05:32:52.225Z,4.45
2022-10-07T05:34:42.778Z,6.13
2022-10-07T05:36:33.459Z,4.90
2022-10-07T05:38:24.047Z,5.60
2022-10-07T05:40:14.870Z,5.35
2022-10-07T05:42:05.445Z,4.80
2022-10-07T05:43:57.345Z,5.70
2022-10-07T05:45:47.962Z,5.30
2022-10-07T05:47:38.437Z,5.57
2022-10-07T05:49:28.649Z,4.95
2022-10-07T05:51:19.566Z,5.85
2022-10-07T05:53:09.987Z,5.38
2022-10-07T05:55:00.613Z,4.47
2022-10-07T05:56:51.138Z,5.28
2022-10-07T05:58:41.698Z,4.72
2022-10-07T06:00:33.619Z,4.72
2022-10-07T06:02:24.642Z,5.80
2022-10-07T06:04:15.184Z,4.93
2022-10-07T06:06:05.931Z,4.80
2022-10-07T06:07:56.329Z,5.00
2022-10-07T06:09:46.919Z,4.40
2022-10-07T06:11:37.447Z,5.30
2022-10-07T06:13:27.729Z,5.03
2022-10-07T06:15:18.359Z,5.20
2022-10-07T06:17:10.139Z,4.38
2022-10-07T06:19:00.795Z,4.63
2022-10-07T06:20:54.544Z,4.55
2022-10-07T06:22:45.130Z,4.32
2022-10-07T06:24:35.555Z,5.30
2022-10-07T06:26:26.054Z,4.97
2022-10-07T06:28:16.656Z,5.28
2022-10-07T06:30:08.298Z,5.05
2022-10-07T06:31:58.547Z,4.72
2022-10-07T06:33:50.941Z,5.25
2022-10-07T06:35:41.739Z,4.75
2022-10-07T06:37:32.689Z,5.90
2022-10-07T06:39:23.026Z,5.35
2022-10-07T06:41:13.862Z,4.60
2022-10-07T06:43:04.931Z,4.35
2022-10-07T06:44:55.346Z,4.82
2022-10-07T06:46:45.712Z,5.35
2022-10-07T06:48:36.375Z,6.30
2022-10-07T06:50:27.991Z,5.93
2022-10-07T06:52:18.447Z,4.93
2022-10-07T06:54:08.902Z,5.55
2022-10-07T06:56:01.998Z,5.70
2022-10-07T06:57:52.617Z,6.25
2022-10-07T06:59:43.395Z,5.60
2022-10-07T07:01:33.923Z,5.95
2022-10-07T07:03:24.939Z,5.55
2022-10-07T07:05:16.277Z,6.00
2022-10-07T07:07:08.510Z,6.78
2022-10-07T07:08:59.010Z,4.95
2022-10-07T07:10:49.651Z,5.63
2022-10-07T07:12:40.768Z,5.38
2022-10-07T07:14:31.439Z,5.72
2022-10-07T07:16:22.197Z,6.05
2022-10-07T07:18:12.557Z,5.93
2022-10-07T07:20:03.345Z,5.47
2022-10-07T07:21:53.811Z,5.50
2022-10-07T07:23:46.134Z,5.28
2022-10-07T07:25:37.456Z,5.43
2022-10-07T07:27:27.979Z,5.55
2022-10-07T07:29:18.396Z,6.03
2022-10-07T07:31:09.816Z,5.25
2022-10-07T07:33:00.740Z,5.23
2022-10-07T07:36:44.816Z,5.68
2022-10-07T07:38:35.599Z,6.75
2022-10-07T07:40:27.511Z,6.95
2022-10-07T07:42:18.285Z,5.32
2022-10-07T07:44:10.232Z,5.75
2022-10-07T07:46:00.718Z,4.90
2022-10-07T07:47:51.681Z,5.35
2022-10-07T07:49:42.386Z,5.65
2022-10-07T07:51:34.200Z,5.95
2022-10-07T07:53:24.679Z,6.03
2022-10-07T07:55:15.353Z,5.47
2022-10-07T07:57:07.427Z,6.05
2022-10-07T07:58:57.943Z,5.70
2022-10-07T08:00:58.069Z,5.10
2022-10-07T08:02:48.762Z,6.43
2022-10-07T08:04:39.665Z,5.45
2022-10-07T08:06:29.937Z,5.88
2022-10-07T08:08:20.475Z,5.88
2022-10-07T08:10:11.475Z,6.30
2022-10-07T08:12:02.258Z,5.72
2022-10-07T08:13:54.428Z,5.38
2022-10-07T08:15:44.898Z,5.22
2022-10-07T08:17:35.206Z,5.88
2022-10-07T08:19:25.823Z,6.80
2022-10-07T08:21:18.149Z,5.30
2022-10-07T08:23:08.516Z,5.35
2022-10-07T08:24:59.328Z,4.63
2022-10-07T08:26:49.805Z,6.95
2022-10-07T08:28:40.427Z,4.50
2022-10-07T08:30:32.466Z,4.50
2022-10-07T08:32:23.144Z,4.97
2022-10-07T08:34:13.933Z,4.95
2022-10-07T08:36:05.657Z,4.80
2022-10-07T08:37:56.058Z,4.63
2022-10-07T08:39:46.462Z,4.95
2022-10-07T08:41:49.834Z,5.60
2022-10-07T08:43:44.712Z,5.15
2022-10-07T08:45:36.465Z,5.18
2022-10-07T08:47:29.597Z,5.47
2022-10-07T08:49:25.266Z,5.13
2022-10-07T08:51:19.939Z,4.90
2022-10-07T08:53:16.744Z,5.93
2022-10-07T08:55:16.487Z,5.28
2022-10-07T08:57:15.067Z,5.40
2022-10-07T08:59:15.847Z,4.65
2022-10-07T09:01:16.083Z,5.25
2022-10-07T09:03:14.223Z,4.60
2022-10-07T09:05:15.128Z,4.82
2022-10-07T09:07:10.484Z,5.28
2022-10-07T09:09:04.022Z,5.43
2022-10-07T09:10:55.291Z,5.70
2022-10-07T09:12:49.061Z,5.90
2022-10-07T09:14:41.384Z,6.03
2022-10-07T09:16:37.299Z,5.50
2022-10-07T09:18:30.700Z,5.47
2022-10-07T09:20:28.967Z,4.78
2022-10-07T09:22:20.541Z,4.90
2022-10-07T09:24:17.994Z,4.70
2022-10-07T09:26:10.691Z,4.68
2022-10-07T09:28:01.296Z,4.65
2022-10-07T09:29:51.994Z,4.70
2022-10-07T09:31:44.276Z,5.18
2022-10-07T09:33:43.157Z,5.07
2022-10-07T09:35:33.384Z,5.47
2022-10-07T09:37:24.569Z,6.35
2022-10-07T09:39:23.122Z,3.90
2022-10-07T09:41:18.488Z,4.80
2022-10-07T09:43:11.379Z,5.53
2022-10-07T09:45:04.725Z,4.30
2022-10-07T09:46:57.786Z,5.75
2022-10-07T09:48:52.101Z,4.93
2022-10-07T09:50:43.255Z,4.38
2022-10-07T09:52:34.071Z,4.70
2022-10-07T09:54:25.406Z,5.22
2022-10-07T09:56:33.083Z,4.30
2022-10-07T09:58:25.970Z,3.95
2022-10-07T10:00:26.762Z,3.67
2022-10-07T10:02:22.262Z,3.88
2022-10-07T10:04:15.940Z,4.43
2022-10-07T10:06:07.994Z,4.80
2022-10-07T10:08:01.639Z,3.75
2022-10-07T10:09:53.275Z,4.50
2022-10-07T10:11:43.915Z,4.22
2022-10-07T10:13:36.580Z,3.22
2022-10-07T10:15:37.367Z,5.60
2022-10-07T10:17:32.615Z,3.60
2022-10-07T10:19:25.082Z,4.05
2022-10-07T10:21:22.726Z,3.70
2022-10-07T10:23:26.738Z,4.28
2022-10-07T10:25:17.947Z,4.50
2022-10-07T10:27:13.038Z,3.90
2022-10-07T10:29:13.955Z,3.75
2022-10-07T10:31:13.317Z,4.50
2022-10-07T10:33:12.967Z,4.20
2022-10-07T10:35:08.410Z,3.50
2022-10-07T10:37:02.153Z,3.83
2022-10-07T10:38:59.173Z,3.55
2022-10-07T10:40:54.924Z,3.55
2022-10-07T10:42:53.383Z,3.97
2022-10-07T10:45:00.359Z,4.38
2022-10-07T10:46:56.301Z,3.45
2022-10-07T10:48:54.248Z,3.45
2022-10-07T10:50:51.442Z,4.15
2022-10-07T10:52:50.856Z,4.38
2022-10-07T10:54:49.737Z,3.45
2022-10-07T10:56:44.824Z,3.95
2022-10-07T10:58:44.861Z,3.92
2022-10-07T11:00:41.575Z,4.38
2022-10-07T11:02:46.162Z,4.15
2022-10-07T11:04:43.501Z,3.35
2022-10-07T11:06:35.978Z,4.05
2022-10-07T11:08:32.429Z,4.07
2022-10-07T11:10:30.683Z,4.35
2022-10-07T11:12:25.196Z,3.95
2022-10-07T11:14:18.130Z,5.10
2022-10-07T11:16:11.207Z,4.43
2022-10-07T11:18:07.965Z,4.25
2022-10-07T11:20:06.092Z,4.20
2022-10-07T11:21:58.216Z,4.50
2022-10-07T11:23:55.135Z,4.22
2022-10-07T11:25:48.632Z,3.70
2022-10-07T11:27:39.295Z,3.83
2022-10-07T11:29:33.918Z,4.72
2022-10-07T11:31:31.925Z,4.18
2022-10-07T11:33:26.441Z,4.47
2022-10-07T11:35:25.385Z,3.72
2022-10-07T11:37:21.144Z,4.18
2022-10-07T11:39:11.790Z,3.58
2022-10-07T11:41:04.660Z,3.97
2022-10-07T11:42:55.539Z,4.18
2022-10-07T11:44:53.115Z,4.35
2022-10-07T11:46:44.839Z,4.32
2022-10-07T11:48:38.900Z,3.60
2022-10-07T11:50:33.198Z,3.60
2022-10-07T11:52:25.684Z,3.67
2022-10-07T11:54:19.360Z,3.90
2022-10-07T11:56:16.630Z,3.92
2022-10-07T11:58:21.911Z,4.00
2022-10-07T12:00:23.817Z,4.18
2022-10-07T12:02:43.773Z,3.72
2022-10-07T12:04:36.789Z,3.50
2022-10-07T12:06:28.824Z,4.07
2022-10-07T12:10:29.003Z,4.75
2022-10-07T12:12:22.589Z,4.03
2022-10-07T12:14:42.206Z,3.85
2022-10-07T12:16:52.394Z,4.13
2022-10-07T12:19:15.051Z,3.70
2022-10-07T12:21:08.556Z,3.90
2022-10-07T12:23:38.550Z,4.45
2022-10-07T12:25:30.743Z,4.43
2022-10-07T12:29:33.232Z,4.45
2022-10-07T12:31:45.990Z,2.90
2022-10-07T12:33:38.715Z,3.50
2022-10-07T12:35:54.011Z,3.47
2022-10-07T12:37:46.444Z,3.35
2022-10-07T12:39:38.718Z,4.50
2022-10-07T12:41:30.523Z,3.88
2022-10-07T12:43:34.086Z,3.97
2022-10-07T12:45:27.109Z,3.63
2022-10-07T12:47:21.494Z,3.97
2022-10-07T12:49:15.799Z,3.45
2022-10-07T12:51:13.013Z,3.72
2022-10-07T12:53:03.722Z,3.45
2022-10-07T12:54:56.890Z,3.40
2022-10-07T12:56:48.112Z,4.53
2022-10-07T12:58:51.775Z,3.97
2022-10-07T13:00:50.545Z,4.07
2022-10-07T13:03:16.684Z,3.78
2022-10-07T13:05:51.494Z,4.22
2022-10-07T13:08:09.184Z,3.30
2022-10-07T13:10:30.843Z,3.10
2022-10-07T13:12:31.564Z,4.60
2022-10-07T13:14:26.263Z,3.17
2022-10-07T13:16:20.911Z,3.80
2022-10-07T13:18:16.992Z,2.85
2022-10-07T13:20:18.299Z,3.20
2022-10-07T13:22:12.786Z,3.38
2022-10-07T13:24:03.831Z,4.10
2022-10-07T13:25:58.218Z,3.58
2022-10-07T13:27:53.788Z,3.30
2022-10-07T13:29:44.678Z,3.20
2022-10-07T13:31:35.525Z,4.03
2022-10-07T13:33:28.979Z,3.75
2022-10-07T13:35:28.773Z,3.38
2022-10-07T13:37:28.205Z,3.83
2022-10-07T13:39:21.111Z,3.20
2022-10-07T13:41:18.143Z,3.50
2022-10-07T13:43:09.602Z,3.72
2022-10-07T13:45:01.579Z,3.27
2022-10-07T13:46:55.230Z,3.08
2022-10-07T13:48:46.210Z,4.03
2022-10-07T13:50:37.032Z,3.80
2022-10-07T13:52:32.139Z,3.65
2022-10-07T13:54:24.346Z,3.28
2022-10-07T13:56:23.009Z,4.20
2022-10-07T13:58:13.628Z,2.85
2022-10-07T14:00:04.820Z,3.50
2022-10-07T14:01:57.201Z,3.30
2022-10-07T14:04:09.077Z,3.70
2022-10-07T14:05:59.747Z,3.03
2022-10-07T14:07:53.150Z,3.50
2022-10-07T14:09:45.913Z,3.00
2022-10-07T14:11:37.551Z,3.08
2022-10-07T14:13:28.369Z,3.15
2022-10-07T14:15:21.226Z,2.72
2022-10-07T14:17:23.848Z,3.15
2022-10-07T14:19:20.570Z,2.80
2022-10-07T14:21:11.860Z,3.10
2022-10-07T14:23:04.842Z,3.20
2022-10-07T14:24:56.952Z,2.95
2022-10-07T14:26:49.035Z,3.38
2022-10-07T14:28:40.237Z,3.08
2022-10-07T14:30:33.283Z,3.23
2022-10-07T14:32:23.855Z,3.30
2022-10-07T14:34:16.027Z,3.13
2022-10-07T14:36:14.757Z,3.08
2022-10-07T14:38:19.715Z,3.70
2022-10-07T14:40:18.025Z,3.20
2022-10-07T14:42:13.013Z,3.60
2022-10-07T14:44:03.895Z,3.53
2022-10-07T14:45:54.615Z,3.20
2022-10-07T14:47:45.256Z,3.08
2022-10-07T14:49:35.803Z,2.80
2022-10-07T14:51:27.509Z,3.03
2022-10-07T14:53:17.830Z,3.20
2022-10-07T14:55:13.859Z,2.70
2022-10-07T14:57:04.275Z,2.88
2022-10-07T14:58:55.910Z,2.70
2022-10-07T15:00:46.359Z,2.88
2022-10-07T15:02:36.784Z,3.10
2022-10-07T15:04:27.051Z,2.70
2022-10-07T15:06:18.937Z,3.75
2022-10-07T15:08:10.780Z,3.22
2022-10-07T15:10:01.015Z,2.80
2022-10-07T15:11:51.714Z,2.17
2022-10-07T15:13:42.689Z,2.83
2022-10-07T15:15:38.414Z,2.75
2022-10-07T15:17:29.284Z,3.00
2022-10-07T15:19:20.103Z,2.80
2022-10-07T15:21:17.889Z,2.72
2022-10-07T15:23:18.867Z,3.15
2022-10-07T15:25:16.051Z,2.80
2022-10-07T15:27:09.009Z,2.75
2022-10-07T15:29:10.529Z,3.40
2022-10-07T15:30:49.030Z,2.90
2022-10-07T15:32:40.468Z,2.80
2022-10-07T15:34:31.152Z,3.00
2022-10-07T15:36:22.534Z,2.78
2022-10-07T15:38:13.144Z,2.78
2022-10-07T15:40:05.066Z,2.95
2022-10-07T15:41:55.820Z,2.60
2022-10-07T15:43:46.535Z,2.58
2022-10-07T15:45:44.870Z,2.55
2022-10-07T15:47:37.130Z,3.25
2022-10-07T15:49:27.481Z,2.60
2022-10-07T15:51:18.230Z,3.15
2022-10-07T15:53:09.095Z,3.10
2022-10-07T15:55:03.747Z,3.00
2022-10-07T15:56:57.733Z,2.72
2022-10-07T15:58:48.062Z,2.75
2022-10-07T16:00:39.210Z,3.15
2022-10-07T16:02:30.425Z,2.75
2022-10-07T16:04:23.000Z,2.60
2022-10-07T16:06:15.978Z,3.15
2022-10-07T16:08:06.738Z,3.63
2022-10-07T16:09:59.177Z,2.50
2022-10-07T16:11:49.850Z,2.78
2022-10-07T16:13:41.784Z,3.10
2022-10-07T16:15:32.466Z,2.60
2022-10-07T16:17:23.167Z,3.53
2022-10-07T16:19:13.446Z,2.95
2022-10-07T16:21:06.496Z,3.38
2022-10-07T16:22:56.975Z,3.70
2022-10-07T16:24:47.223Z,3.33
2022-10-07T16:26:37.964Z,3.85
2022-10-07T16:28:28.677Z,3.47
2022-10-07T16:30:19.543Z,2.85
2022-10-07T16:32:10.895Z,3.63
2022-10-07T16:34:01.990Z,3.25
2022-10-07T16:35:52.982Z,2.97
2022-10-07T16:37:48.954Z,3.88
2022-10-07T16:39:42.432Z,3.08
2022-10-07T16:41:33.025Z,2.70
2022-10-07T16:43:23.742Z,2.70
2022-10-07T16:45:14.497Z,3.22
2022-10-07T16:47:05.757Z,2.92
2022-10-07T16:48:59.820Z,2.95
2022-10-07T16:50:50.629Z,2.90
2022-10-07T16:52:41.930Z,3.35
2022-10-07T16:54:34.046Z,3.38
2022-10-07T16:58:15.976Z,3.30
2022-10-07T17:00:07.787Z,2.47
2022-10-07T17:01:58.429Z,2.83
2022-10-07T17:03:49.849Z,3.72
2022-10-07T17:05:43.524Z,3.08
2022-10-07T17:07:34.414Z,2.30
2022-10-07T17:09:25.016Z,3.10
2022-10-07T17:11:19.510Z,2.80
2022-10-07T17:13:19.451Z,3.17
2022-10-07T17:15:10.012Z,3.25
2022-10-07T17:17:00.401Z,3.00
2022-10-07T17:18:50.824Z,2.40
2022-10-07T17:20:48.024Z,2.88
2022-10-07T17:22:38.793Z,3.38
2022-10-07T17:24:29.283Z,2.88
2022-10-07T17:26:20.986Z,2.72
2022-10-07T17:28:11.540Z,3.42
2022-10-07T17:30:02.018Z,3.10
2022-10-07T17:31:53.346Z,2.53
2022-10-07T17:33:44.238Z,3.38
2022-10-07T17:35:35.490Z,2.55
2022-10-07T17:37:26.284Z,2.92
2022-10-07T17:39:17.087Z,2.50
2022-10-07T17:41:11.866Z,3.17
2022-10-07T17:43:05.344Z,2.50
2022-10-07T17:44:56.161Z,2.45
2022-10-07T17:46:46.544Z,3.00
2022-10-07T17:48:37.245Z,2.63
2022-10-07T17:50:28.022Z,2.83
2022-10-07T17:52:18.415Z,3.22
2022-10-07T17:54:11.212Z,3.10
2022-10-07T17:56:03.121Z,3.15
2022-10-07T17:57:53.562Z,2.60
2022-10-07T17:59:45.069Z,2.47
2022-10-07T18:01:36.135Z,2.47
2022-10-07T18:03:26.691Z,2.95
2022-10-07T18:05:17.251Z,2.25
2022-10-07T18:07:07.979Z,2.67
2022-10-07T18:08:58.461Z,2.90
2022-10-07T18:10:50.848Z,2.67
2022-10-07T18:12:41.263Z,3.08
2022-10-07T18:14:31.978Z,3.15
2022-10-07T18:16:24.068Z,3.40
2022-10-07T18:18:15.009Z,2.40
2022-10-07T18:20:07.859Z,3.00
2022-10-07T18:22:00.656Z,2.97
2022-10-07T18:23:52.767Z,3.42
2022-10-07T18:25:43.531Z,2.88
2022-10-07T18:27:34.072Z,2.80
2022-10-07T18:29:24.545Z,2.50
2022-10-07T18:31:17.128Z,2.65
2022-10-07T18:35:00.405Z,2.92
2022-10-07T18:36:55.993Z,2.90
2022-10-07T18:38:47.788Z,2.85
2022-10-07T18:40:38.485Z,3.03
2022-10-07T18:42:29.066Z,2.83
2022-10-07T18:44:19.707Z,3.10
2022-10-07T18:46:12.268Z,2.55
2022-10-07T18:48:03.203Z,2.88
2022-10-07T18:49:55.701Z,2.90
2022-10-07T18:51:46.166Z,2.67
2022-10-07T18:53:37.943Z,2.70
2022-10-07T18:55:28.359Z,2.65
2022-10-07T18:57:19.009Z,2.72
2022-10-07T18:59:10.145Z,2.85
2022-10-07T19:01:05.731Z,3.00
2022-10-07T19:03:02.881Z,3.20
2022-10-07T19:04:54.852Z,3.13
2022-10-07T19:08:37.105Z,3.25
2022-10-07T19:10:27.643Z,2.45
2022-10-07T19:12:18.146Z,2.65
2022-10-07T19:14:08.924Z,3.67
2022-10-07T19:16:02.434Z,2.78
2022-10-07T19:17:53.248Z,3.75
2022-10-07T19:19:43.847Z,2.38
2022-10-07T19:21:36.671Z,3.65
2022-10-07T19:23:27.893Z,3.60
2022-10-07T19:25:18.443Z,2.97
2022-10-07T19:27:08.855Z,3.28
2022-10-07T19:28:59.286Z,2.55
2022-10-07T19:30:49.871Z,3.33
2022-10-07T19:32:42.263Z,3.22
2022-10-07T19:34:33.003Z,2.78
2022-10-07T19:36:23.902Z,2.35
2022-10-07T19:38:15.993Z,3.30
2022-10-07T19:40:07.805Z,3.35
2022-10-07T19:41:58.795Z,2.63
2022-10-07T19:43:50.205Z,2.63
2022-10-07T19:45:42.381Z,2.58
2022-10-07T19:47:33.052Z,3.42
2022-10-07T19:49:23.637Z,3.13
2022-10-07T19:51:16.164Z,2.92
2022-10-07T19:53:10.082Z,2.65
2022-10-07T19:55:02.684Z,3.28
2022-10-07T19:58:44.664Z,3.10
2022-10-07T20:00:35.053Z,2.92
2022-10-07T20:02:25.593Z,3.63
2022-10-07T20:04:18.880Z,2.58
2022-10-07T20:06:09.944Z,2.25
2022-10-07T20:13:25.619Z,3.20
2022-10-07T20:15:49.266Z,3.97
2022-10-07T20:17:41.193Z,2.60
2022-10-07T20:19:34.994Z,3.22
2022-10-07T20:21:29.477Z,2.92
2022-10-07T20:23:45.157Z,2.95
2022-10-07T20:28:01.844Z,2.72
2022-10-07T20:30:00.528Z,3.08
2022-10-07T20:32:06.354Z,2.58
2022-10-07T20:34:01.861Z,2.97
2022-10-07T20:36:21.554Z,3.00
2022-10-07T20:38:28.303Z,3.75
2022-10-07T20:40:37.253Z,2.97
2022-10-07T20:42:39.813Z,3.53
2022-10-07T20:45:00.136Z,2.65
2022-10-07T20:47:14.801Z,2.70
2022-10-07T20:49:39.007Z,3.00
2022-10-07T20:52:14.455Z,3.72
2022-10-07T20:54:22.093Z,2.50
2022-10-07T20:56:35.052Z,2.80
2022-10-07T20:58:45.709Z,3.05
2022-10-07T21:03:35.288Z,3.90
2022-10-07T21:05:46.232Z,2.90
2022-10-07T21:10:36.442Z,3.00
2022-10-07T21:12:41.858Z,3.53
2022-10-07T21:14:48.922Z,3.42
2022-10-07T21:16:55.949Z,3.50
2022-10-07T21:19:07.510Z,3.28
2022-10-07T21:21:17.331Z,3.47
2022-10-07T21:23:22.799Z,4.25
2022-10-07T21:25:27.674Z,4.80
2022-10-07T21:27:32.970Z,3.10
2022-10-07T21:29:41.041Z,3.50
2022-10-07T21:31:52.073Z,3.22
2022-10-07T21:34:00.601Z,3.40
2022-10-07T21:36:09.660Z,3.75
2022-10-07T21:38:16.550Z,2.67
2022-10-07T21:40:22.787Z,3.25
2022-10-07T21:42:28.420Z,4.18
2022-10-07T21:44:36.887Z,3.33
2022-10-07T21:46:43.062Z,3.90
2022-10-07T21:48:49.210Z,4.13
2022-10-07T21:50:59.550Z,3.33
2022-10-07T21:53:05.721Z,3.30
2022-10-07T21:55:11.922Z,3.35
2022-10-07T21:57:18.590Z,3.72
2022-10-07T21:59:24.461Z,3.88
2022-10-07T22:01:30.255Z,3.25
2022-10-07T22:03:36.927Z,3.25
2022-10-07T22:05:47.845Z,3.60
2022-10-07T22:07:59.815Z,3.67
2022-10-07T22:10:08.147Z,4.97
2022-10-07T22:12:16.107Z,3.97
2022-10-07T22:14:24.598Z,3.42
2022-10-07T22:16:34.536Z,3.55
2022-10-07T22:18:40.057Z,4.07
2022-10-07T22:20:47.648Z,4.13
2022-10-07T22:22:57.812Z,4.22
2022-10-07T22:25:18.223Z,3.90
2022-10-07T22:27:23.401Z,3.70
2022-10-07T22:29:29.033Z,3.60
2022-10-07T22:31:38.410Z,3.75
2022-10-07T22:33:45.049Z,3.50
2022-10-07T22:35:51.678Z,3.45
2022-10-07T22:37:59.643Z,4.32
2022-10-07T22:40:09.740Z,2.63
2022-10-07T22:42:15.395Z,2.45
2022-10-07T22:44:20.533Z,2.80
2022-10-07T22:46:29.579Z,2.17
2022-10-07T22:48:34.780Z,3.20
2022-10-07T22:50:25.522Z,2.60
2022-10-07T22:52:31.372Z,2.38
2022-10-07T22:54:38.582Z,2.85
2022-10-07T22:56:30.783Z,2.70
2022-10-07T22:58:37.135Z,2.80
2022-10-07T23:00:42.210Z,2.85
2022-10-07T23:02:49.554Z,3.47
2022-10-07T23:05:00.427Z,2.75
2022-10-07T23:07:11.781Z,2.78
2022-10-07T23:09:17.728Z,2.67
2022-10-07T23:11:26.454Z,3.33
2022-10-07T23:13:35.718Z,2.70
2022-10-07T23:15:26.532Z,3.03
2022-10-07T23:17:30.664Z,3.47
2022-10-07T23:19:36.006Z,3.08
2022-10-07T23:21:29.445Z,3.38
2022-10-07T23:23:20.485Z,3.08
2022-10-07T23:25:11.279Z,3.40
2022-10-07T23:27:02.056Z,3.40
2022-10-07T23:28:56.472Z,3.60
2022-10-07T23:30:47.285Z,3.58
2022-10-07T23:32:38.315Z,3.20
2022-10-07T23:34:29.324Z,2.80
2022-10-07T23:36:21.569Z,3.28
2022-10-07T23:38:12.640Z,3.25
2022-10-07T23:40:03.570Z,3.47
2022-10-07T23:41:54.650Z,3.15
2022-10-07T23:43:45.845Z,2.83
2022-10-07T23:45:37.789Z,2.92
2022-10-07T23:49:19.222Z,2.70
2022-10-07T23:51:12.944Z,3.25
2022-10-07T23:53:03.320Z,3.17
2022-10-07T23:54:53.919Z,2.33
2022-10-07T23:56:44.551Z,2.78
2022-10-07T23:58:36.202Z,3.40
